Time;durP1;ratioP1;P1;durP2;ratioP2;P2;SDS_P1;SDS_P2;PMS_P1;PMS_P2;Temp;Humidity;BMP_temperature;BMP_pressure;BME280_temperature;BME280_humidity;BME280_pressure;Samples;Min_cycle;Max_cycle;Signal;HPM_P1;HPM_P2
2022/03/07 00:00:17;;;;;;;5.00;2.23;;;1.60;99.90;;;;;;6342641;22;20029;-84
2022/03/07 00:02:43;;;;;;;5.03;2.55;;;1.60;99.90;;;;;;6370216;22;20029;-85
2022/03/07 00:05:08;;;;;;;6.63;2.60;;;1.60;99.90;;;;;;6370167;22;20022;-84
2022/03/07 00:07:34;;;;;;;7.23;2.73;;;1.60;99.90;;;;;;6370239;22;20336;-84
2022/03/07 00:10:00;;;;;;;4.33;2.00;;;1.50;99.90;;;;;;6370065;22;20347;-85
2022/03/07 00:12:25;;;;;;;6.60;2.17;;;1.50;99.90;;;;;;6342595;22;20010;-86
2022/03/07 00:14:51;;;;;;;8.18;2.30;;;1.50;99.90;;;;;;6342396;22;20405;-85
2022/03/07 00:17:17;;;;;;;7.00;2.67;;;1.40;99.90;;;;;;6370427;22;20026;-87
2022/03/07 00:19:42;;;;;;;4.45;2.13;;;1.40;99.90;;;;;;6370096;22;20018;-85
2022/03/07 00:22:08;;;;;;;6.47;2.23;;;1.40;99.90;;;;;;6316383;22;20029;-86
2022/03/07 00:24:33;;;;;;;4.75;1.85;;;1.40;99.90;;;;;;6370154;22;20063;-86
2022/03/07 00:26:59;;;;;;;6.82;1.70;;;1.40;99.90;;;;;;6342469;22;20068;-84
2022/03/07 00:29:26;;;;;;;4.45;1.50;;;1.40;99.90;;;;;;6342548;22;20103;-85
2022/03/07 00:31:51;;;;;;;4.40;1.40;;;1.40;99.90;;;;;;6342557;22;20023;-86
2022/03/07 00:34:17;;;;;;;4.38;1.42;;;1.30;99.90;;;;;;6370285;22;20026;-89
2022/03/07 00:36:43;;;;;;;5.63;1.20;;;1.30;99.90;;;;;;6342517;22;20102;-83
2022/03/07 00:39:08;;;;;;;4.53;1.40;;;1.30;99.90;;;;;;6370233;22;20029;-85
2022/03/07 00:41:34;;;;;;;4.87;1.40;;;1.30;99.90;;;;;;6370187;22;20406;-83
2022/03/07 00:44:00;;;;;;;4.50;1.27;;;1.30;99.90;;;;;;6370186;22;20058;-84
2022/03/07 00:46:25;;;;;;;5.18;1.23;;;1.30;99.90;;;;;;6370259;22;20050;-84
2022/03/07 00:48:51;;;;;;;3.72;1.27;;;1.30;99.90;;;;;;6370202;22;20018;-84
2022/03/07 00:51:16;;;;;;;5.80;1.60;;;1.20;99.90;;;;;;6370242;22;20029;-85
2022/03/07 00:53:42;;;;;;;3.93;1.40;;;1.30;99.90;;;;;;6370340;22;20060;-82
2022/03/07 00:56:10;;;;;;;4.80;1.30;;;1.30;99.90;;;;;;6342917;22;20025;-85
2022/03/07 00:58:38;;;;;;;3.38;1.30;;;1.20;99.90;;;;;;6344091;22;20125;-85
2022/03/07 01:01:03;;;;;;;3.30;1.25;;;1.20;99.90;;;;;;6344075;22;20018;-84
2022/03/07 01:03:30;;;;;;;3.83;1.15;;;1.10;99.90;;;;;;6343993;22;20029;-83
2022/03/07 01:05:56;;;;;;;4.65;1.52;;;1.00;99.90;;;;;;6317938;22;20060;-84
2022/03/07 01:08:22;;;;;;;3.33;1.30;;;0.90;99.90;;;;;;6372249;22;20019;-84
2022/03/07 01:10:49;;;;;;;5.90;1.60;;;0.90;99.90;;;;;;6343648;22;20520;-85
2022/03/07 01:13:15;;;;;;;5.88;1.63;;;0.70;99.90;;;;;;6371951;22;20019;-84
2022/03/07 01:15:41;;;;;;;2.80;1.42;;;0.70;99.90;;;;;;6344044;22;20014;-84
2022/03/07 01:18:06;;;;;;;8.85;1.98;;;0.60;99.90;;;;;;6371888;22;20026;-83
2022/03/07 01:20:33;;;;;;;5.18;1.83;;;0.60;99.90;;;;;;6343964;22;20018;-83
2022/03/07 01:22:59;;;;;;;6.15;1.83;;;0.60;99.90;;;;;;6371916;22;20010;-83
2022/03/07 01:25:25;;;;;;;5.50;2.13;;;0.60;99.90;;;;;;6371828;22;20043;-82
2022/03/07 01:27:50;;;;;;;4.17;2.20;;;0.60;99.90;;;;;;6371857;22;20355;-84
2022/03/07 01:30:16;;;;;;;7.32;2.40;;;0.60;99.90;;;;;;6371824;22;20047;-88
2022/03/07 01:32:42;;;;;;;4.45;1.95;;;0.60;99.90;;;;;;6371863;22;20019;-84
2022/03/07 01:35:08;;;;;;;6.38;2.20;;;0.70;99.90;;;;;;6343838;22;20026;-83
2022/03/07 01:37:34;;;;;;;5.15;2.10;;;0.70;99.90;;;;;;6371893;22;20461;-83
2022/03/07 01:40:00;;;;;;;5.55;2.13;;;0.70;99.90;;;;;;6371515;22;20089;-83
2022/03/07 01:42:26;;;;;;;3.35;1.38;;;0.60;99.90;;;;;;6343730;22;20019;-82
2022/03/07 01:44:51;;;;;;;5.30;1.73;;;0.60;99.90;;;;;;6371402;22;20018;-85
2022/03/07 01:47:17;;;;;;;5.72;1.63;;;0.60;99.90;;;;;;6317847;22;20359;-83
2022/03/07 01:49:43;;;;;;;6.43;1.90;;;0.50;99.90;;;;;;6343642;22;20019;-83
2022/03/07 01:52:09;;;;;;;4.43;1.70;;;0.60;99.90;;;;;;6371661;22;20015;-87
2022/03/07 01:54:35;;;;;;;5.18;1.42;;;0.60;99.90;;;;;;6343338;22;20018;-83
2022/03/07 01:57:01;;;;;;;6.03;1.80;;;0.50;99.90;;;;;;6371520;22;20021;-83
2022/03/07 01:59:29;;;;;;;4.10;1.60;;;0.50;99.90;;;;;;6371732;22;20014;-83
2022/03/07 02:04:30;;;;;;;4.13;1.67;;;0.50;99.90;;;;;;6371196;22;20018;-84
2022/03/07 02:06:55;;;;;;;5.88;1.98;;;0.50;99.90;;;;;;6343317;22;20014;-84
2022/03/07 02:09:21;;;;;;;5.35;1.75;;;0.50;99.90;;;;;;6317343;22;20152;-83
2022/03/07 02:11:47;;;;;;;8.30;2.17;;;0.50;99.90;;;;;;6343773;22;20019;-83
2022/03/07 02:14:22;;;;;;;9.13;2.30;;;0.50;99.90;;;;;;6343302;22;20061;-83
2022/03/07 02:16:49;;;;;;;6.95;2.03;;;0.40;99.90;;;;;;6343424;22;20018;-82
2022/03/07 02:19:15;;;;;;;5.68;1.90;;;0.40;99.90;;;;;;6344452;22;20044;-82
2022/03/07 02:21:49;;;;;;;4.40;1.88;;;0.40;99.90;;;;;;6317203;22;20018;-83
2022/03/07 02:24:17;;;;;;;4.38;2.22;;;0.40;99.90;;;;;;6343247;22;20030;-82
2022/03/07 02:26:54;;;;;;;6.40;2.30;;;0.40;99.90;;;;;;6343184;22;20022;-82
2022/03/07 02:29:19;;;;;;;4.88;2.00;;;0.50;99.90;;;;;;6317222;22;20037;-82
2022/03/07 02:31:45;;;;;;;4.25;2.40;;;0.50;99.90;;;;;;6343209;22;20459;-82
2022/03/07 02:34:11;;;;;;;5.10;2.30;;;0.50;99.90;;;;;;6343403;22;20023;-83
2022/03/07 02:36:36;;;;;;;6.95;2.63;;;0.50;99.90;;;;;;6343153;22;20052;-83
2022/03/07 02:39:02;;;;;;;7.18;2.40;;;0.40;99.90;;;;;;6342805;22;20046;-83
2022/03/07 02:41:30;;;;;;;6.60;2.60;;;0.40;99.90;;;;;;6317253;22;20328;-83
2022/03/07 02:43:56;;;;;;;8.35;2.75;;;0.40;99.90;;;;;;6342888;22;20018;-83
2022/03/07 02:46:21;;;;;;;6.30;2.50;;;0.30;99.90;;;;;;6316970;22;20029;-84
2022/03/07 02:48:47;;;;;;;8.82;2.65;;;0.40;99.90;;;;;;6343136;22;20040;-84
2022/03/07 02:51:13;;;;;;;7.72;2.63;;;0.30;99.90;;;;;;6343189;22;20376;-84
2022/03/07 02:53:38;;;;;;;12.68;3.00;;;0.30;99.90;;;;;;6370780;22;20018;-82
2022/03/07 02:56:04;;;;;;;8.40;2.67;;;0.30;99.90;;;;;;6343153;22;20022;-83
2022/03/07 02:58:30;;;;;;;6.47;2.75;;;0.30;99.90;;;;;;6343052;22;20025;-84
2022/03/07 03:00:56;;;;;;;7.13;2.97;;;0.30;99.90;;;;;;6343031;22;20045;-83
2022/03/07 03:03:22;;;;;;;7.97;3.03;;;0.30;99.90;;;;;;6342469;22;20028;-85
2022/03/07 03:05:47;;;;;;;7.90;3.28;;;0.20;99.90;;;;;;6316775;22;20053;-83
2022/03/07 03:08:13;;;;;;;9.00;3.40;;;0.20;99.90;;;;;;6342794;22;20022;-87
2022/03/07 03:10:39;;;;;;;8.77;2.92;;;0.20;99.90;;;;;;6343035;22;20455;-83
2022/03/07 03:13:04;;;;;;;7.32;2.58;;;0.20;99.90;;;;;;6370532;22;20397;-83
2022/03/07 03:15:30;;;;;;;6.95;2.80;;;0.10;99.90;;;;;;6342753;22;20052;-83
2022/03/07 03:17:56;;;;;;;6.60;2.90;;;0.10;99.90;;;;;;6342897;22;20019;-83
2022/03/07 03:20:21;;;;;;;7.55;3.22;;;0.20;99.90;;;;;;6342636;22;20320;-83
2022/03/07 03:22:47;;;;;;;8.98;3.15;;;0.20;99.90;;;;;;6342725;22;20018;-84
2022/03/07 03:25:16;;;;;;;7.88;3.35;;;0.20;99.90;;;;;;6342630;22;20022;-84
2022/03/07 03:27:43;;;;;;;6.80;2.95;;;0.20;99.90;;;;;;6368932;22;20120;-86
2022/03/07 03:30:10;;;;;;;5.82;2.90;;;0.20;99.90;;;;;;6370499;22;20018;-83
2022/03/07 03:32:36;;;;;;;8.63;3.28;;;0.20;99.90;;;;;;6316527;22;20014;-83
2022/03/07 03:35:03;;;;;;;6.75;3.22;;;0.20;99.90;;;;;;6316416;22;20076;-82
2022/03/07 03:37:28;;;;;;;7.88;2.92;;;0.20;99.90;;;;;;6342569;22;20080;-83
2022/03/07 03:39:54;;;;;;;8.00;3.42;;;0.10;99.90;;;;;;6342382;22;20488;-82
2022/03/07 03:42:21;;;;;;;7.30;3.28;;;0.00;99.90;;;;;;6370379;22;20047;-83
2022/03/07 03:44:48;;;;;;;6.95;2.88;;;0.10;99.90;;;;;;6316426;22;20079;-83
2022/03/07 03:47:13;;;;;;;6.70;3.15;;;0.00;99.90;;;;;;6342439;22;20019;-83
2022/03/07 03:49:39;;;;;;;8.30;2.83;;;0.00;99.90;;;;;;6342400;22;20325;-84
2022/03/07 03:52:05;;;;;;;8.32;2.95;;;0.00;99.90;;;;;;6342518;22;20022;-82
2022/03/07 03:54:31;;;;;;;7.05;2.97;;;-0.10;99.90;;;;;;6342593;22;20022;-83
2022/03/07 03:56:57;;;;;;;8.15;3.50;;;-0.10;99.90;;;;;;6342561;22;20093;-83
2022/03/07 03:59:22;;;;;;;6.35;3.00;;;-0.10;99.90;;;;;;6342325;22;20346;-83
2022/03/07 04:01:48;;;;;;;7.68;3.15;;;-0.10;99.90;;;;;;6370340;22;20022;-83
2022/03/07 04:04:14;;;;;;;9.10;3.40;;;-0.10;99.90;;;;;;6342148;22;20474;-84
2022/03/07 04:06:42;;;;;;;9.67;3.30;;;-0.10;99.90;;;;;;6342394;22;20018;-83
2022/03/07 04:09:19;;;;;;;5.82;2.80;;;-0.10;99.90;;;;;;6342272;22;20248;-83
2022/03/07 04:11:46;;;;;;;7.55;3.15;;;-0.10;99.90;;;;;;6342277;22;20029;-84
2022/03/07 04:14:12;;;;;;;10.00;3.22;;;-0.10;99.90;;;;;;6342406;22;20045;-85
2022/03/07 04:16:38;;;;;;;8.23;3.42;;;-0.10;99.90;;;;;;6342136;22;20138;-83
2022/03/07 04:19:06;;;;;;;9.30;3.55;;;-0.20;99.90;;;;;;6342325;22;20026;-83
2022/03/07 04:21:33;;;;;;;9.93;3.38;;;-0.10;99.90;;;;;;6370071;22;20018;-85
2022/03/07 04:23:58;;;;;;;8.80;3.40;;;-0.20;99.90;;;;;;6370141;22;20041;-83
2022/03/07 04:26:25;;;;;;;8.85;2.95;;;-0.10;99.90;;;;;;6316253;22;20454;-82
2022/03/07 04:28:51;;;;;;;6.45;2.88;;;-0.20;99.90;;;;;;6342323;22;20019;-84
2022/03/07 04:31:16;;;;;;;6.63;3.00;;;-0.20;99.90;;;;;;6343239;22;20018;-83
2022/03/07 04:33:42;;;;;;;7.90;3.15;;;-0.20;99.90;;;;;;6372245;22;20382;-83
2022/03/07 04:36:11;;;;;;;7.60;3.40;;;-0.20;99.90;;;;;;6344311;22;20026;-84
2022/03/07 04:38:37;;;;;;;5.70;2.95;;;-0.20;99.90;;;;;;6344263;22;20022;-84
2022/03/07 04:41:03;;;;;;;5.82;2.70;;;-0.20;99.90;;;;;;6344291;22;20057;-84
2022/03/07 04:43:28;;;;;;;5.13;2.67;;;-0.20;99.90;;;;;;6344217;22;20033;-83
2022/03/07 04:45:54;;;;;;;5.00;2.75;;;-0.20;99.90;;;;;;6317928;22;20026;-83
2022/03/07 04:48:20;;;;;;;8.73;3.20;;;-0.30;99.90;;;;;;6344300;22;20439;-83
2022/03/07 04:50:46;;;;;;;6.03;3.20;;;-0.30;99.90;;;;;;6344129;22;20014;-85
2022/03/07 04:53:13;;;;;;;6.70;2.90;;;-0.30;99.90;;;;;;6371966;22;20024;-83
2022/03/07 04:55:38;;;;;;;9.38;3.15;;;-0.30;99.90;;;;;;6344308;22;20468;-83
2022/03/07 04:58:04;;;;;;;6.75;3.00;;;-0.30;99.90;;;;;;6344051;22;20050;-84
2022/03/07 05:00:31;;;;;;;8.13;3.15;;;-0.30;99.90;;;;;;6344089;22;20438;-85
2022/03/07 05:02:56;;;;;;;7.38;2.90;;;-0.30;99.90;;;;;;6343373;22;20033;-82
2022/03/07 05:05:22;;;;;;;5.60;2.28;;;-0.40;99.90;;;;;;6369807;22;20019;-83
2022/03/07 05:07:51;;;;;;;7.50;2.70;;;-0.40;99.90;;;;;;6342036;22;20025;-82
2022/03/07 05:10:18;;;;;;;6.35;2.80;;;-0.40;99.90;;;;;;6342096;22;20053;-82
2022/03/07 05:12:44;;;;;;;;;;;-0.40;99.90;;;;;;6368743;22;20019;-83
2022/03/07 05:15:10;;;;;;;8.13;2.67;;;-0.50;99.90;;;;;;6342127;22;20007;-83
2022/03/07 05:17:43;;;;;;;7.27;3.37;;;-0.50;99.90;;;;;;6342175;22;20033;-82
2022/03/07 05:20:11;;;;;;;5.60;2.67;;;-0.50;99.90;;;;;;6369952;22;20099;-85
2022/03/07 05:22:37;;;;;;;4.82;2.75;;;-0.60;99.90;;;;;;6341943;22;20464;-82
2022/03/07 05:25:04;;;;;;;7.83;3.27;;;-0.50;99.90;;;;;;6341929;22;20025;-83
2022/03/07 05:27:30;;;;;;;7.60;3.97;;;-0.50;99.90;;;;;;6369773;22;20019;-81
2022/03/07 05:29:55;;;;;;;8.65;3.05;;;-0.50;99.90;;;;;;6369761;22;20094;-83
2022/03/07 05:32:21;;;;;;;5.80;2.67;;;-0.50;99.90;;;;;;6369724;22;20109;-84
2022/03/07 05:34:47;;;;;;;6.68;2.70;;;-0.50;99.90;;;;;;6369882;22;20014;-85
2022/03/07 05:37:27;;;;;;;5.10;2.33;;;-0.50;99.90;;;;;;6370157;22;20021;-82
2022/03/07 05:39:58;;;;;;;6.72;2.90;;;-0.50;99.90;;;;;;6316171;22;20505;-82
2022/03/07 05:42:24;;;;;;;5.95;2.67;;;-0.60;99.90;;;;;;6341339;22;20023;-82
2022/03/07 05:44:50;;;;;;;7.97;2.88;;;-0.60;99.90;;;;;;6315544;22;20019;-82
2022/03/07 05:47:15;;;;;;;6.57;3.30;;;-0.60;99.90;;;;;;6315129;22;20042;-83
2022/03/07 05:49:56;;;;;;;9.63;4.82;;;-0.70;99.90;;;;;;6341931;22;20022;-85
2022/03/07 05:53:09;;;;;;;12.93;6.50;;;-0.60;99.90;;;;;;6338201;22;20045;-87
2022/03/07 05:55:41;;;;;;;12.20;6.13;;;-0.60;99.90;;;;;;6315593;22;20416;-85
2022/03/07 05:58:07;;;;;;;13.13;5.70;;;-0.60;99.90;;;;;;6341536;22;20018;-86
2022/03/07 06:00:32;;;;;;;9.85;5.00;;;-0.70;99.90;;;;;;6315462;22;20024;-84
2022/03/07 06:02:58;;;;;;;9.18;5.32;;;-0.70;99.90;;;;;;6256886;22;1338117;-85
2022/03/07 06:05:24;;;;;;;8.18;4.35;;;-0.60;99.90;;;;;;6317059;22;20466;-85
2022/03/07 06:07:49;;;;;;;8.13;4.63;;;-0.60;99.90;;;;;;6317074;22;20400;-86
2022/03/07 06:10:15;;;;;;;13.23;4.85;;;-0.70;99.90;;;;;;6343066;22;20076;-85
2022/03/07 06:12:41;;;;;;;8.68;4.93;;;-0.70;99.90;;;;;;6371397;22;20021;-84
2022/03/07 06:15:07;;;;;;;8.55;4.53;;;-0.70;99.90;;;;;;6371969;22;20431;-84
2022/03/07 06:17:34;;;;;;;7.70;3.72;;;-0.70;99.90;;;;;;6371500;22;20022;-86
2022/03/07 06:20:00;;;;;;;8.65;3.33;;;-0.70;99.90;;;;;;6343426;22;20457;-86
2022/03/07 06:22:26;;;;;;;11.65;4.15;;;-0.70;99.90;;;;;;6343131;22;20101;-87
2022/03/07 06:24:52;;;;;;;8.13;3.65;;;-0.70;99.90;;;;;;6343214;22;20018;-83
2022/03/07 06:27:17;;;;;;;9.40;4.53;;;-0.70;99.90;;;;;;6371084;22;20022;-82
2022/03/07 06:29:43;;;;;;;8.55;4.10;;;-0.70;99.90;;;;;;6343298;22;20014;-82
2022/03/07 06:32:09;;;;;;;9.10;4.38;;;-0.70;99.90;;;;;;6343571;22;20022;-82
2022/03/07 06:34:35;;;;;;;12.55;4.80;;;-0.70;99.90;;;;;;6344656;22;20022;-87
2022/03/07 06:37:02;;;;;;;12.30;5.00;;;-0.60;99.90;;;;;;6317631;22;20025;-89
2022/03/07 06:42:03;;;;;;;13.93;6.57;;;-0.60;99.90;;;;;;6401951;22;20021;-88
2022/03/07 06:44:29;;;;;;;13.43;6.80;;;-0.50;99.90;;;;;;6347731;22;20028;-88
2022/03/07 06:46:54;;;;;;;11.82;6.32;;;-0.40;99.90;;;;;;6346298;22;20014;-87
2022/03/07 06:49:20;;;;;;;11.90;6.18;;;-0.40;99.90;;;;;;6373635;22;20014;-89
2022/03/07 06:51:46;;;;;;;10.27;5.18;;;-0.40;99.90;;;;;;6348921;22;20462;-90
2022/03/07 06:54:12;;;;;;;10.30;4.15;;;-0.40;99.90;;;;;;6347230;22;20018;-88
2022/03/07 06:56:38;;;;;;;7.78;3.15;;;-0.40;99.90;;;;;;6373231;22;20512;-88
2022/03/07 06:59:03;;;;;;;12.53;4.17;;;-0.30;99.90;;;;;;6348365;22;20094;-90
2022/03/07 07:01:29;;;;;;;7.82;3.20;;;-0.20;99.90;;;;;;6348823;22;20022;-89
2022/03/07 07:03:55;;;;;;;8.90;3.80;;;-0.20;99.90;;;;;;6348746;22;20014;-89
2022/03/07 07:06:21;;;;;;;7.75;3.45;;;-0.10;99.90;;;;;;6348847;22;20028;-89
2022/03/07 07:09:05;;;;;;;13.85;4.63;;;-0.10;99.90;;;;;;6349536;22;20495;-94
2022/03/07 07:12:13;;;;;;;7.78;4.07;;;-0.10;99.90;;;;;;6348505;22;20014;-92
2022/03/07 07:14:45;;;;;;;9.68;4.43;;;0.00;99.90;;;;;;6350381;22;20516;-89
2022/03/07 07:17:10;;;;;;;7.93;4.68;;;0.30;99.90;;;;;;6350131;22;20052;-89
2022/03/07 07:19:36;;;;;;;7.90;4.47;;;0.70;99.90;;;;;;6350406;22;20021;-91
2022/03/07 07:22:02;;;;;;;9.45;4.57;;;1.00;99.90;;;;;;6348842;22;20029;-89
2022/03/07 07:30:46;;;;;;;11.10;5.50;;;1.20;99.90;;;;;;6339587;22;20079;-88
2022/03/07 07:33:12;;;;;;;11.32;6.13;;;1.20;99.90;;;;;;6285930;22;20076;-91
2022/03/07 07:35:38;;;;;;;11.40;6.35;;;1.20;99.90;;;;;;6285841;22;20011;-89
2022/03/07 07:38:25;;;;;;;11.33;5.90;;;1.10;99.90;;;;;;6311597;22;20019;-88
2022/03/07 07:40:51;;;;;;;9.40;5.90;;;1.10;99.90;;;;;;6285668;22;20026;-91
2022/03/07 07:43:17;;;;;;;11.27;5.22;;;1.10;99.90;;;;;;6287495;22;20015;-89
2022/03/07 07:45:43;;;;;;;10.40;6.13;;;1.10;99.90;;;;;;6311491;22;20511;-88
2022/03/07 07:48:09;;;;;;;13.48;6.72;;;1.10;99.90;;;;;;6312472;22;20047;-90
2022/03/07 07:50:35;;;;;;;11.10;6.43;;;1.20;99.90;;;;;;6286152;22;20436;-88
2022/03/07 07:53:00;;;;;;;10.60;6.00;;;1.20;99.90;;;;;;6313404;22;20075;-89
2022/03/07 07:55:26;;;;;;;12.73;6.28;;;1.20;99.90;;;;;;6287545;22;20098;-88
2022/03/07 07:57:52;;;;;;;10.65;5.97;;;1.30;99.90;;;;;;6312272;22;20015;-91
2022/03/07 08:00:21;;;;;;;11.32;6.32;;;1.30;99.90;;;;;;6286890;22;20072;-89
2022/03/07 08:02:49;;;;;;;12.13;5.90;;;1.40;99.90;;;;;;6286912;22;20054;-91
2022/03/07 08:05:16;;;;;;;12.20;6.18;;;1.40;99.90;;;;;;6287123;22;20018;-91
2022/03/07 08:08:02;;;;;;;10.55;5.38;;;1.50;99.90;;;;;;6288475;22;20456;-89
2022/03/07 08:10:28;;;;;;;9.25;5.40;;;1.60;99.90;;;;;;6286452;22;20097;-94
2022/03/07 08:12:53;;;;;;;15.45;6.38;;;1.60;99.90;;;;;;6291782;22;20080;-89
2022/03/07 08:15:20;;;;;;;12.43;5.82;;;1.70;99.90;;;;;;6286883;22;20450;-93
2022/03/07 08:17:49;;;;;;;8.65;5.68;;;1.80;99.90;;;;;;6311803;22;20085;-92
2022/03/07 08:20:20;;;;;;;12.00;5.30;;;1.90;99.90;;;;;;6337656;22;20033;-90
2022/03/07 08:22:46;;;;;;;12.27;5.72;;;1.90;99.90;;;;;;6311421;22;20023;-93
2022/03/07 08:25:13;;;;;;;8.82;4.63;;;2.00;99.90;;;;;;6285791;22;20449;-94
2022/03/07 08:27:39;;;;;;;15.98;5.63;;;2.00;99.90;;;;;;6285197;22;20435;-88
2022/03/07 08:30:07;;;;;;;11.85;5.60;;;2.20;99.90;;;;;;6285929;22;20014;-89
2022/03/07 08:32:34;;;;;;;8.82;4.13;;;2.30;99.90;;;;;;6314428;22;20019;-89
2022/03/07 08:35:00;;;;;;;12.65;4.50;;;2.30;99.90;;;;;;6286386;22;20027;-90
2022/03/07 08:37:26;;;;;;;9.37;4.07;;;2.40;99.90;;;;;;6285787;22;20504;-86
2022/03/07 08:39:52;;;;;;;8.45;3.90;;;2.40;99.90;;;;;;6311328;22;20026;-93
2022/03/07 08:42:19;;;;;;;10.17;3.90;;;2.50;99.90;;;;;;6311160;22;20343;-88
2022/03/07 08:44:45;;;;;;;11.73;3.88;;;2.60;99.90;;;;;;6311689;22;20023;-91
2022/03/07 08:47:12;;;;;;;8.15;3.00;;;2.70;99.90;;;;;;6279998;22;20397;-91
2022/03/07 08:49:38;;;;;;;10.50;3.30;;;2.80;99.90;;;;;;6285972;22;20027;-94
2022/03/07 08:52:04;;;;;;;9.93;3.28;;;2.80;99.90;;;;;;6311494;22;20455;-90
2022/03/07 08:54:31;;;;;;;6.97;3.22;;;2.90;99.90;;;;;;6280939;22;20030;-92
2022/03/07 08:56:56;;;;;;;4.87;2.90;;;3.00;99.90;;;;;;6339222;22;20022;-86
2022/03/07 08:59:24;;;;;;;7.10;2.77;;;3.00;99.90;;;;;;6285847;22;20015;-94
2022/03/07 09:01:50;;;;;;;7.30;2.88;;;3.10;99.90;;;;;;6285816;22;20011;-88
2022/03/07 09:04:16;;;;;;;7.15;2.90;;;3.20;99.90;;;;;;6285804;22;20436;-90
2022/03/07 09:06:43;;;;;;;7.07;3.30;;;3.30;99.90;;;;;;6285583;22;20344;-89
2022/03/07 09:09:09;;;;;;;7.00;2.95;;;3.30;99.90;;;;;;6285661;22;20019;-91
2022/03/07 09:11:35;;;;;;;7.50;2.72;;;3.40;99.90;;;;;;6285475;22;20280;-90
2022/03/07 09:14:01;;;;;;;6.95;2.72;;;3.50;99.90;;;;;;6285795;22;20340;-87
2022/03/07 09:16:26;;;;;;;8.83;3.90;;;3.50;99.90;;;;;;6285136;22;20056;-89
2022/03/07 09:18:52;;;;;;;8.67;2.73;;;3.60;99.90;;;;;;6339033;22;20052;-90
2022/03/07 09:21:18;;;;;;;7.37;2.57;;;3.70;99.90;;;;;;6287113;22;20030;-88
2022/03/07 09:23:46;;;;;;;5.50;2.37;;;3.80;99.90;;;;;;6338983;22;20019;-89
2022/03/07 09:26:13;;;;;;;8.98;2.85;;;3.90;99.90;;;;;;6287069;22;20378;-89
2022/03/07 09:28:54;;;;;;;;;;;3.90;99.90;;;;;;6313664;22;20015;-89
2022/03/07 09:31:19;;;;;;;7.45;2.42;;;4.00;99.90;;;;;;6285459;22;19936;-88
2022/03/07 09:33:47;;;;;;;7.95;2.60;;;4.10;99.90;;;;;;6312985;22;20058;-90
2022/03/07 09:36:13;;;;;;;6.32;2.40;;;4.10;99.90;;;;;;6310061;22;20017;-91
2022/03/07 09:38:39;;;;;;;9.20;2.58;;;4.20;99.90;;;;;;6339089;22;20019;-90
2022/03/07 09:41:05;;;;;;;12.52;3.33;;;4.30;99.90;;;;;;6287314;22;20053;-88
2022/03/07 09:43:59;;;;;;;7.67;2.43;;;4.30;99.90;;;;;;6340592;22;20017;-92
2022/03/07 09:47:12;;;;;;;8.23;2.80;;;4.40;99.90;;;;;;6287454;22;20022;-88
2022/03/07 09:49:44;;;;;;;10.57;2.55;;;4.50;99.90;;;;;;6287343;22;20023;-91
2022/03/07 09:52:11;;;;;;;8.32;2.05;;;4.60;99.90;;;;;;6286854;22;20025;-89
2022/03/07 09:54:37;;;;;;;5.82;2.22;;;4.70;99.90;;;;;;6313740;22;20022;-88
2022/03/07 09:57:03;;;;;;;5.82;2.08;;;4.80;99.90;;;;;;6286226;22;20390;-87
2022/03/07 09:59:38;;;;;;;4.93;1.95;;;4.90;99.90;;;;;;6286860;22;20019;-90
2022/03/07 10:02:07;;;;;;;8.15;2.58;;;5.00;99.90;;;;;;6288431;22;20026;-90
2022/03/07 10:04:45;;;;;;;5.93;2.08;;;5.10;99.90;;;;;;6287608;22;20065;-88
2022/03/07 10:07:12;;;;;;;7.10;2.08;;;5.20;99.90;;;;;;6313587;22;20015;-89
2022/03/07 10:09:38;;;;;;;;;;;5.20;99.90;;;;;;6287565;22;20448;-91
2022/03/07 10:12:04;;;;;;;8.80;2.15;;;5.30;99.90;;;;;;6286796;22;19914;-88
2022/03/07 10:14:45;;;;;;;9.00;2.30;;;5.40;99.90;;;;;;6287579;22;20060;-87
2022/03/07 10:17:31;;;;;;;7.07;2.05;;;5.40;99.90;;;;;;6286899;22;20023;-89
2022/03/07 10:20:03;;;;;;;8.00;2.05;;;5.50;99.90;;;;;;6274843;22;20030;-88
2022/03/07 10:22:46;;;;;;;6.72;2.40;;;5.60;99.90;;;;;;6286522;22;20050;-88
2022/03/07 10:25:13;;;;;;;10.77;2.80;;;5.60;99.90;;;;;;6286121;22;20047;-86
2022/03/07 10:27:41;;;;;;;9.38;2.10;;;5.60;99.90;;;;;;6286583;22;20026;-90
2022/03/07 10:30:11;;;;;;;7.43;1.65;;;5.50;99.90;;;;;;6286314;22;20018;-86
2022/03/07 10:32:51;;;;;;;6.72;1.90;;;5.60;99.90;;;;;;6311886;22;20022;-87
2022/03/07 10:35:28;;;;;;;5.10;2.40;;;5.70;99.90;;;;;;6285749;22;20033;-87
2022/03/07 10:38:34;;;;;;;7.57;2.20;;;5.80;99.90;;;;;;6290243;22;20019;-90
2022/03/07 10:44:37;;;;;;;7.13;2.22;;;6.20;99.90;;;;;;6317392;22;20015;-89
2022/03/07 10:47:12;;;;;;;5.00;1.60;;;6.40;99.90;;;;;;6291515;22;20023;-89
2022/03/07 10:49:56;;;;;;;6.82;2.10;;;6.40;99.90;;;;;;6290464;22;20011;-87
2022/03/07 10:52:58;;;;;;;9.13;2.20;;;6.50;99.90;;;;;;6319080;22;20022;-87
2022/03/07 10:55:30;;;;;;;6.80;1.90;;;6.60;99.90;;;;;;6300781;22;20440;-86
2022/03/07 10:58:12;;;;;;;7.13;1.98;;;6.80;99.90;;;;;;6322109;22;20348;-89
2022/03/07 11:00:52;;;;;;;4.93;1.60;;;6.80;99.90;;;;;;6296818;22;20398;-91
2022/03/07 11:03:22;;;;;;;5.43;1.50;;;6.80;99.90;;;;;;6318466;22;20075;-91
2022/03/07 11:05:49;;;;;;;5.13;1.75;;;6.80;99.90;;;;;;6287417;22;20467;-91
2022/03/07 11:08:16;;;;;;;6.85;1.55;;;6.80;99.90;;;;;;6287143;22;20023;-86
2022/03/07 11:10:48;;;;;;;5.78;1.60;;;6.80;99.90;;;;;;6286794;22;20102;-93
2022/03/07 11:13:15;;;;;;;6.78;1.95;;;6.70;99.90;;;;;;6312390;22;20052;-93
2022/03/07 11:15:43;;;;;;;5.07;1.80;;;6.70;99.90;;;;;;6289484;22;20019;-95
2022/03/07 11:18:11;;;;;;;7.50;1.80;;;6.70;99.90;;;;;;6286335;22;20026;-89
2022/03/07 11:20:41;;;;;;;6.38;2.15;;;6.70;99.90;;;;;;6287915;22;20019;-90
2022/03/07 11:23:07;;;;;;;6.53;1.65;;;6.50;99.90;;;;;;6313211;22;20065;-89
2022/03/07 11:25:34;;;;;;;4.50;1.90;;;6.50;99.90;;;;;;6313460;22;20466;-93
2022/03/07 11:28:04;;;;;;;7.13;1.75;;;6.40;99.90;;;;;;6314912;22;20015;-92
2022/03/07 11:30:35;;;;;;;4.45;1.67;;;6.50;99.90;;;;;;6287074;22;20106;-91
2022/03/07 11:33:11;;;;;;;5.93;1.70;;;6.40;99.90;;;;;;6285961;22;20019;-88
2022/03/07 11:35:44;;;;;;;4.15;1.70;;;6.50;99.90;;;;;;6311892;22;20041;-90
2022/03/07 11:38:16;;;;;;;4.68;1.40;;;6.70;99.90;;;;;;6339738;22;20018;-89
2022/03/07 11:40:55;;;;;;;4.88;1.73;;;6.90;99.90;;;;;;6339220;22;20329;-92
2022/03/07 11:43:24;;;;;;;4.72;1.20;;;7.00;99.90;;;;;;6286560;22;20022;-92
2022/03/07 11:45:51;;;;;;;4.93;0.90;;;7.00;99.90;;;;;;6313361;22;20018;-87
2022/03/07 11:48:17;;;;;;;3.83;1.40;;;7.20;99.90;;;;;;6289162;22;20015;-95
2022/03/07 11:50:43;;;;;;;6.10;1.07;;;7.40;99.90;;;;;;6286250;22;20118;-92
2022/03/07 11:53:08;;;;;;;4.07;1.47;;;7.50;99.90;;;;;;6291772;22;20021;-94
2022/03/07 11:55:47;;;;;;;3.73;1.20;;;7.40;99.90;;;;;;6299008;22;20055;-96
2022/03/07 11:58:13;;;;;;;5.45;1.70;;;7.30;99.90;;;;;;6322875;22;20018;-90
2022/03/07 12:00:39;;;;;;;5.40;1.70;;;7.20;99.90;;;;;;6347106;22;20025;-94
2022/03/07 12:03:15;;;;;;;4.00;1.30;;;7.10;99.90;;;;;;6345494;22;20336;-88
2022/03/07 12:05:43;;;;;;;3.97;1.20;;;7.00;99.90;;;;;;6319713;22;20054;-93
2022/03/07 12:08:14;;;;;;;2.17;0.82;;;6.80;99.90;;;;;;6317389;22;20025;-90
2022/03/07 12:11:04;;;;;;;2.80;0.90;;;6.80;99.90;;;;;;6317118;22;20018;-89
2022/03/07 12:13:32;;;;;;;5.80;1.10;;;6.90;99.90;;;;;;6317322;22;20010;-90
2022/03/07 12:15:58;;;;;;;3.22;1.02;;;6.90;99.90;;;;;;6317437;22;20013;-93
2022/03/07 12:18:24;;;;;;;4.53;0.90;;;6.90;99.90;;;;;;6342935;22;20054;-91
2022/03/07 12:20:58;;;;;;;2.60;0.93;;;6.90;99.90;;;;;;6317611;22;20022;-90
2022/03/07 12:23:28;;;;;;;4.15;1.50;;;6.90;99.90;;;;;;6318565;22;20103;-93
2022/03/07 12:26:03;;;;;;;4.20;1.45;;;7.00;99.90;;;;;;6316586;22;20026;-92
2022/03/07 12:28:32;;;;;;;5.40;1.58;;;7.00;99.90;;;;;;6319895;22;20076;-89
2022/03/07 12:30:58;;;;;;;4.95;1.35;;;7.00;99.90;;;;;;6320550;22;20014;-93
2022/03/07 12:33:24;;;;;;;4.68;1.27;;;7.00;99.90;;;;;;6322371;22;20101;-95
2022/03/07 12:36:03;;;;;;;5.32;1.20;;;7.10;99.90;;;;;;6319048;22;20025;-90
2022/03/07 12:38:30;;;;;;;5.85;1.38;;;7.00;99.90;;;;;;6369163;22;20023;-94
2022/03/07 12:40:59;;;;;;;5.53;1.33;;;7.00;99.90;;;;;;6318286;22;20018;-90
2022/03/07 12:43:26;;;;;;;5.28;1.58;;;7.00;99.90;;;;;;6319789;22;20015;-93
2022/03/07 12:45:56;;;;;;;4.70;1.40;;;7.00;99.90;;;;;;6319224;22;20053;-93
2022/03/07 12:48:34;;;;;;;6.28;1.63;;;7.10;99.90;;;;;;6324095;22;20014;-90
2022/03/07 12:51:03;;;;;;;;;;;7.20;99.90;;;;;;6344089;22;20018;-93
2022/03/07 12:53:29;;;;;;;4.20;1.42;;;7.30;99.90;;;;;;6320680;22;20247;-92
2022/03/07 12:56:03;;;;;;;3.47;1.20;;;7.40;99.90;;;;;;6318052;22;20019;-89
2022/03/07 12:58:29;;;;;;;6.55;1.65;;;7.60;99.90;;;;;;6321986;22;20328;-93
2022/03/07 13:00:57;;;;;;;5.83;1.93;;;7.60;99.90;;;;;;6318857;22;20018;-91
2022/03/07 13:03:24;;;;;;;3.92;1.55;;;7.70;99.90;;;;;;6319832;22;20025;-95
2022/03/07 13:06:00;;;;;;;4.95;1.90;;;7.80;99.90;;;;;;6314113;22;20023;-92
2022/03/07 13:08:26;;;;;;;6.50;2.20;;;7.90;99.60;;;;;;6315185;22;20046;-90
2022/03/07 13:10:51;;;;;;;4.30;1.83;;;7.90;99.30;;;;;;6316338;22;20410;-91
2022/03/07 13:13:17;;;;;;;4.33;1.73;;;7.90;98.80;;;;;;6314584;22;20019;-91